Terminal Aerodrome Forecast
Issued by NWS North Platte, NE

Home | Current Version | Previous Version | Text Only | Print | Product List | Glossary On
Versions: 1 2 3 4 5 6 7 8 9 10 11 12 13 14 15 16 17 18 19 20 21 22
000
FTUS43 KLBF 102300
TAFVTN
TAF
KVTN 102337Z 1100/1124 16016KT P6SM SCT050
      TEMPO 1100/1103 4SM TSRA BKN050CB
     FM110400 16009KT P6SM VCTS BKN060CB
      TEMPO 1105/1107 VRB36G46KT 2SM +TSRAGS BKN040CB
     FM110800 20005KT P6SM OVC120
     FM111500 29008KT P6SM BKN100=

USA.gov is the U.S. government's official web portal to all federal, state and local government web resources and services.